Time;durP1;ratioP1;P1;durP2;ratioP2;P2;SDS_P1;SDS_P2;PMS_P1;PMS_P2;Temp;Humidity;BMP_temperature;BMP_pressure;BME280_temperature;BME280_humidity;BME280_pressure;Samples;Min_cycle;Max_cycle;Signal;HPM_P1;HPM_P2
2022/04/07 00:01:32;;;;;;;0.70;0.70;;;;;;;;;;5038342;28;20110;-68
2022/04/07 00:03:58;;;;;;;0.80;0.80;;;;;;;;;;5043200;28;20497;-67
2022/04/07 00:06:24;;;;;;;1.00;1.00;;;;;;;;;;5043081;28;20109;-68
2022/04/07 00:08:50;;;;;;;0.70;0.57;;;;;;;;;;5038176;28;25987;-66
2022/04/07 00:11:16;;;;;;;0.60;0.60;;;;;;;;;;5039931;28;20021;-68
2022/04/07 00:13:42;;;;;;;4.78;0.70;;;;;;;;;;5043133;28;20048;-68
2022/04/07 00:16:08;;;;;;;0.50;0.50;;;;;;;;;;5044359;28;20029;-68
2022/04/07 00:18:34;;;;;;;0.50;0.50;;;9.40;99.00;;;;;;5038909;28;20055;-68
2022/04/07 00:21:02;;;;;;;0.50;0.50;;;;;;;;;;5038816;28;20028;-69
2022/04/07 00:23:28;;;;;;;0.65;0.43;;;;;;;;;;5045011;28;20048;-68
2022/04/07 00:25:54;;;;;;;1.00;0.70;;;;;;;;;;5045624;28;20106;-66
2022/04/07 00:28:20;;;;;;;0.77;0.65;;;;;;;;;;5036279;28;20037;-69
2022/04/07 00:30:46;;;;;;;0.70;0.70;;;;;;;;;;5036213;28;20021;-69
2022/04/07 00:33:15;;;;;;;1.45;1.35;;;;;;;;;;5042802;28;20036;-68
2022/04/07 00:35:41;;;;;;;2.05;0.80;;;;;;;;;;5044212;28;20029;-69
2022/04/07 00:38:07;;;;;;;1.33;0.60;;;9.70;99.90;;;;;;5039742;28;20044;-69
2022/04/07 00:40:33;;;;;;;0.63;0.60;;;;;;;;;;5032857;28;20029;-67
2022/04/07 00:42:59;;;;;;;1.83;0.70;;;;;;;;;;5042977;28;20025;-69
2022/04/07 00:45:25;;;;;;;0.50;0.50;;;;;;;;;;5044433;28;20112;-67
2022/04/07 00:47:51;;;;;;;0.60;0.60;;;;;;;;;;5041868;28;20163;-67
2022/04/07 00:50:19;;;;;;;0.57;0.57;;;;;;;;;;5034673;28;20509;-67
2022/04/07 00:52:52;;;;;;;1.80;0.90;;;;;;;;;;5042141;28;20021;-68
2022/04/07 00:55:19;;;;;;;0.50;0.50;;;;;;;;;;5042115;28;20044;-68
2022/04/07 00:57:46;;;;;;;1.15;0.70;;;;;;;;;;5042484;28;20029;-68
2022/04/07 01:00:12;;;;;;;0.75;0.50;;;;;;;;;;5032284;28;20036;-68
2022/04/07 01:02:38;;;;;;;2.87;0.70;;;10.00;99.90;;;;;;5043105;28;20028;-66
2022/04/07 01:05:05;;;;;;;0.50;0.50;;;;;;;;;;5044812;28;20574;-68
2022/04/07 01:07:37;;;;;;;0.77;0.77;;;;;;;;;;5040843;28;20045;-68
2022/04/07 01:10:04;;;;;;;0.90;0.80;;;;;;;;;;5030382;28;20079;-68
2022/04/07 01:12:30;;;;;;;3.15;1.05;;;;;;;;;;5044445;28;20025;-68
2022/04/07 01:15:00;;;;;;;0.50;0.50;;;9.80;95.50;;;;;;5045682;28;20098;-69
2022/04/07 01:17:27;;;;;;;0.63;0.57;;;;;;;;;;5045229;28;20761;-69
2022/04/07 01:19:53;;;;;;;0.60;0.60;;;;;;;;;;5031986;28;20029;-69
2022/04/07 01:22:20;;;;;;;1.00;0.70;;;;;;;;;;5040999;28;20027;-68
2022/04/07 01:24:47;;;;;;;0.95;0.50;;;;;;;;;;5041462;28;20033;-68
2022/04/07 01:27:13;;;;;;;1.90;0.70;;;;;;;;;;5044385;28;20062;-68
2022/04/07 01:29:39;;;;;;;0.50;0.50;;;;;;;;;;5052503;28;20033;-70
2022/04/07 01:32:11;;;;;;;0.47;0.47;;;;;;;;;;5040071;28;20021;-67
2022/04/07 01:34:39;;;;;;;0.70;0.70;;;9.30;95.40;;;;;;5041066;28;20528;-67
2022/04/07 01:37:06;;;;;;;1.08;0.80;;;;;;;;;;5042852;28;20056;-67
2022/04/07 01:39:32;;;;;;;;;;;;;;;;;;5036061;28;20020;-68
2022/04/07 01:41:58;;;;;;;0.40;0.40;;;;;;;;;;5039020;28;20359;-68
2022/04/07 01:44:26;;;;;;;1.05;0.55;;;8.30;95.70;;;;;;5043955;28;20025;-68
2022/04/07 01:46:52;;;;;;;0.63;0.55;;;;;;;;;;5041890;28;20036;-67
2022/04/07 01:49:18;;;;;;;0.75;0.55;;;;;;;;;;5033497;28;20085;-68
2022/04/07 01:51:46;;;;;;;0.60;0.60;;;;;;;;;;5037023;28;20021;-66
2022/04/07 01:54:12;;;;;;;0.50;0.50;;;;;;;;;;5041782;28;20303;-68
2022/04/07 01:56:39;;;;;;;0.50;0.50;;;;;;;;;;5045401;28;20105;-68
2022/04/07 01:59:05;;;;;;;1.02;0.60;;;;;;;;;;5033714;28;20025;-67
2022/04/07 02:01:31;;;;;;;0.68;0.50;;;;;;;;;;5036613;28;20029;-68
2022/04/07 02:03:56;;;;;;;2.70;0.80;;;9.40;99.90;;;;;;5041044;28;20456;-67
2022/04/07 02:06:25;;;;;;;0.85;0.60;;;;;;;;;;5044184;28;20029;-68
2022/04/07 02:08:51;;;;;;;0.60;0.60;;;;;;;;;;5035147;28;20969;-69
2022/04/07 02:11:17;;;;;;;0.75;0.50;;;;;;;;;;5039824;28;20029;-68
2022/04/07 02:13:43;;;;;;;1.52;0.50;;;;;;;;;;5041688;28;20033;-68
2022/04/07 02:16:09;;;;;;;0.65;0.60;;;;;;;;;;5041245;28;20053;-68
2022/04/07 02:18:36;;;;;;;0.50;0.50;;;;;;;;;;5036540;28;20033;-68
2022/04/07 02:21:02;;;;;;;0.93;0.52;;;;;;;;;;5034773;28;20021;-68
2022/04/07 02:23:28;;;;;;;0.60;0.47;;;;;;;;;;5044402;28;20025;-68
2022/04/07 02:25:54;;;;;;;0.95;0.95;;;;;;;;;;5041120;28;20041;-67
2022/04/07 02:28:20;;;;;;;1.02;0.50;;;;;;;;;;5036494;28;20152;-69
2022/04/07 02:30:47;;;;;;;2.35;0.80;;;;;;;;;;5034395;28;20132;-69
2022/04/07 02:33:13;;;;;;;0.93;0.83;;;;;;;;;;5042242;28;20520;-67
2022/04/07 02:35:40;;;;;;;1.48;0.70;;;;;;;;;;5041881;28;20040;-68
2022/04/07 02:38:06;;;;;;;0.30;0.30;;;;;;;;;;5038953;28;20048;-68
2022/04/07 02:40:32;;;;;;;0.30;0.30;;;9.80;94.50;;;;;;5031671;28;20405;-69
2022/04/07 02:42:58;;;;;;;0.40;0.40;;;;;;;;;;5041088;28;20025;-68
2022/04/07 02:45:24;;;;;;;0.40;0.40;;;;;;;;;;5042213;28;20033;-69
2022/04/07 02:47:50;;;;;;;0.30;0.30;;;;;;;;;;5042364;28;20110;-68
2022/04/07 02:50:19;;;;;;;0.30;0.30;;;;;;;;;;5029540;28;20751;-69
2022/04/07 02:52:45;;;;;;;0.73;0.60;;;;;;;;;;5041067;28;20018;-68
2022/04/07 02:55:11;;;;;;;0.73;0.73;;;;;;;;;;5039965;28;20568;-68
2022/04/07 02:57:37;;;;;;;0.50;0.50;;;;;;;;;;5042265;28;20021;-68
2022/04/07 03:00:06;;;;;;;0.32;0.32;;;;;;;;;;5032290;28;20025;-68
2022/04/07 03:02:32;;;;;;;0.43;0.40;;;;;;;;;;5040592;28;20043;-68
2022/04/07 03:04:58;;;;;;;0.35;0.35;;;10.30;96.50;;;;;;5041893;28;20022;-66
2022/04/07 03:07:23;;;;;;;0.73;0.40;;;10.40;96.20;;;;;;5040564;28;20025;-68
2022/04/07 03:09:49;;;;;;;0.50;0.50;;;;;;;;;;5032855;28;20513;-70
2022/04/07 03:12:16;;;;;;;0.50;0.43;;;;;;;;;;5035275;28;20029;-68
2022/04/07 03:14:42;;;;;;;0.35;0.35;;;10.50;92.70;;;;;;5043760;28;20082;-69
2022/04/07 03:17:08;;;;;;;0.30;0.30;;;;;;;;;;5047019;28;20017;-67
2022/04/07 03:19:34;;;;;;;0.40;0.40;;;;;;;;;;5038189;28;20417;-67
2022/04/07 03:22:00;;;;;;;0.43;0.43;;;;;;;;;;5036801;28;20025;-69
2022/04/07 03:24:26;;;;;;;0.40;0.40;;;;;;;;;;5045932;28;20075;-69
2022/04/07 03:26:52;;;;;;;1.00;0.50;;;;;;;;;;5044594;28;20391;-68
2022/04/07 03:29:20;;;;;;;0.40;0.40;;;10.90;97.00;;;;;;5040479;28;20162;-68
2022/04/07 03:31:47;;;;;;;0.40;0.40;;;;;;;;;;5038853;28;20079;-69
2022/04/07 03:34:13;;;;;;;0.32;0.32;;;;;;;;;;5045260;28;20029;-68
2022/04/07 03:36:39;;;;;;;0.32;0.32;;;;;;;;;;5044729;28;20090;-67
2022/04/07 03:39:05;;;;;;;0.30;0.30;;;10.70;99.90;;;;;;5041156;28;20025;-68
2022/04/07 03:41:31;;;;;;;0.40;0.40;;;;;;;;;;5039475;28;20047;-69
2022/04/07 03:43:57;;;;;;;0.30;0.30;;;;;;;;;;5045647;28;20494;-68
2022/04/07 03:46:23;;;;;;;0.30;0.30;;;;;;;;;;5044583;28;20055;-68
2022/04/07 03:48:49;;;;;;;0.40;0.40;;;;;;;;;;5038819;28;20044;-68
2022/04/07 03:51:16;;;;;;;0.55;0.55;;;;;;;;;;5039142;28;20115;-68
2022/04/07 03:53:42;;;;;;;0.27;0.27;;;;;;;;;;5043083;28;20033;-68
2022/04/07 03:56:08;;;;;;;0.30;0.30;;;;;;;;;;5048759;28;20094;-67
2022/04/07 03:58:34;;;;;;;0.30;0.30;;;;;;;;;;5039919;28;20021;-67
2022/04/07 04:01:00;;;;;;;0.40;0.40;;;;;;;;;;5040501;28;20135;-67
2022/04/07 04:03:26;;;;;;;0.38;0.38;;;;;;;;;;5045292;28;20501;-69
2022/04/07 04:05:52;;;;;;;0.30;0.30;;;;;;;;;;5045496;28;20048;-68
2022/04/07 04:08:18;;;;;;;0.30;0.30;;;;;;;;;;5040866;28;20040;-69
2022/04/07 04:10:44;;;;;;;0.40;0.40;;;10.60;99.90;;;;;;5054235;28;20021;-67
2022/04/07 04:13:10;;;;;;;0.40;0.40;;;;;;;;;;5042177;28;20043;-68
2022/04/07 04:15:36;;;;;;;0.40;0.40;;;;;;;;;;5044091;28;20032;-68
2022/04/07 04:18:02;;;;;;;0.40;0.40;;;;;;;;;;5042027;28;20037;-69
2022/04/07 04:20:27;;;;;;;2.30;0.40;;;10.50;96.10;;;;;;5037060;28;20029;-67
2022/04/07 04:22:53;;;;;;;0.50;0.50;;;;;;;;;;5042987;28;20025;-68
2022/04/07 04:25:19;;;;;;;0.40;0.40;;;;;;;;;;5043031;28;20079;-67
2022/04/07 04:27:45;;;;;;;0.30;0.30;;;;;;;;;;5042826;28;20025;-68
2022/04/07 04:30:15;;;;;;;0.93;0.93;;;10.80;90.90;;;;;;5049465;28;20528;-68
2022/04/07 04:32:43;;;;;;;0.40;0.40;;;;;;;;;;5045166;28;20047;-67
2022/04/07 04:35:10;;;;;;;0.30;0.30;;;;;;;;;;5044221;28;20033;-68
2022/04/07 04:37:36;;;;;;;0.47;0.47;;;;;;;;;;5043541;28;20023;-67
2022/04/07 04:40:02;;;;;;;0.40;0.40;;;;;;;;;;5033601;28;20029;-69
2022/04/07 04:42:28;;;;;;;0.40;0.40;;;11.40;96.30;;;;;;5042031;28;21036;-69
2022/04/07 04:44:54;;;;;;;3.63;0.63;;;10.90;99.90;;;;;;5042098;28;20112;-66
2022/04/07 04:47:20;;;;;;;0.30;0.30;;;;;;;;;;5045797;28;20033;-68
2022/04/07 04:49:46;;;;;;;0.40;0.40;;;;;;;;;;5036659;28;20390;-68
2022/04/07 04:52:12;;;;;;;0.35;0.35;;;;;;;;;;5036632;28;20030;-68
2022/04/07 04:54:38;;;;;;;0.30;0.30;;;;;;;;;;5043759;28;20409;-68
2022/04/07 04:57:06;;;;;;;0.30;0.30;;;11.00;96.30;;;;;;5044710;28;20040;-67
2022/04/07 04:59:32;;;;;;;0.30;0.30;;;;;;;;;;5037193;28;20020;-68
2022/04/07 05:01:58;;;;;;;1.85;0.50;;;;;;;;;;5037951;28;20814;-68
2022/04/07 05:04:24;;;;;;;0.40;0.40;;;;;;;;;;5041217;28;20074;-68
2022/04/07 05:06:50;;;;;;;0.50;0.50;;;;;;;;;;5042604;28;20593;-68
2022/04/07 05:09:16;;;;;;;0.30;0.30;;;;;;;;;;5036719;28;20036;-68
2022/04/07 05:11:42;;;;;;;0.60;0.52;;;;;;;;;;5037944;28;20052;-68
2022/04/07 05:14:08;;;;;;;0.40;0.40;;;;;;;;;;5042590;28;20029;-68
2022/04/07 05:16:34;;;;;;;0.65;0.65;;;;;;;;;;5041865;28;20025;-68
2022/04/07 05:19:00;;;;;;;0.30;0.30;;;;;;;;;;5036985;28;20044;-68
2022/04/07 05:21:26;;;;;;;0.40;0.40;;;;;;;;;;5036640;28;20056;-69
2022/04/07 05:23:52;;;;;;;0.45;0.45;;;;;;;;;;5046952;28;20661;-68
2022/04/07 05:26:18;;;;;;;0.30;0.30;;;;;;;;;;5044262;28;20033;-68
2022/04/07 05:28:44;;;;;;;0.40;0.40;;;;;;;;;;5029086;28;20044;-68
2022/04/07 05:31:11;;;;;;;0.40;0.40;;;;;;;;;;5033719;28;20103;-68
2022/04/07 05:33:37;;;;;;;0.40;0.40;;;;;;;;;;5040003;28;20071;-67
2022/04/07 05:36:03;;;;;;;0.77;0.50;;;;;;;;;;5040288;28;20036;-68
2022/04/07 05:38:29;;;;;;;0.45;0.45;;;;;;;;;;5036533;28;20041;-67
2022/04/07 05:40:55;;;;;;;0.40;0.40;;;;;;;;;;5032918;28;20021;-67
2022/04/07 05:43:21;;;;;;;0.55;0.55;;;;;;;;;;5039794;28;20576;-67
2022/04/07 05:45:49;;;;;;;0.63;0.57;;;;;;;;;;5040474;28;20397;-68
2022/04/07 05:48:15;;;;;;;0.38;0.38;;;;;;;;;;5037378;28;20040;-69
2022/04/07 05:50:41;;;;;;;0.50;0.40;;;;;;;;;;5033951;28;20436;-68
2022/04/07 05:53:07;;;;;;;0.30;0.30;;;;;;;;;;5041989;28;20055;-67
2022/04/07 05:55:36;;;;;;;0.30;0.30;;;;;;;;;;5038326;28;20041;-67
2022/04/07 05:58:03;;;;;;;0.38;0.38;;;;;;;;;;5037836;28;20036;-68
2022/04/07 06:00:29;;;;;;;0.50;0.50;;;;;;;;;;5033005;28;20029;-67
2022/04/07 06:02:55;;;;;;;0.32;0.32;;;;;;;;;;5042151;28;20044;-68
2022/04/07 06:05:21;;;;;;;0.35;0.35;;;;;;;;;;5044695;28;20025;-71
2022/04/07 06:07:47;;;;;;;0.40;0.40;;;;;;;;;;5040646;28;20032;-70
2022/04/07 06:10:14;;;;;;;0.40;0.40;;;;;;;;;;5033228;28;20075;-71
2022/04/07 06:12:42;;;;;;;0.38;0.38;;;;;;;;;;5035182;28;20032;-67
2022/04/07 06:15:12;;;;;;;0.38;0.38;;;10.80;91.00;;;;;;5043828;28;20389;-66
2022/04/07 06:17:44;;;;;;;0.40;0.40;;;10.80;91.10;;;;;;5047199;28;20113;-66
2022/04/07 06:20:11;;;;;;;0.30;0.30;;;;;;;;;;5039123;28;20029;-68
2022/04/07 06:22:37;;;;;;;0.80;0.68;;;;;;;;;;5040472;28;20171;-66
2022/04/07 06:25:03;;;;;;;0.40;0.40;;;;;;;;;;5045993;28;20040;-66
2022/04/07 06:27:33;;;;;;;0.43;0.43;;;;;;;;;;5044721;28;20029;-66
2022/04/07 06:29:59;;;;;;;0.43;0.43;;;;;;;;;;5039451;28;20639;-66
2022/04/07 06:32:25;;;;;;;0.38;0.38;;;;;;;;;;5038968;28;20029;-66
2022/04/07 06:34:51;;;;;;;1.15;0.50;;;;;;;;;;5046268;28;20028;-66
2022/04/07 06:37:17;;;;;;;0.40;0.40;;;;;;;;;;5044727;28;20041;-67
2022/04/07 06:39:43;;;;;;;0.63;0.52;;;;;;;;;;5041267;28;20158;-66
2022/04/07 06:42:09;;;;;;;0.40;0.40;;;;;;;;;;5037788;28;20086;-66
2022/04/07 06:44:35;;;;;;;0.40;0.40;;;;;;;;;;5046171;28;20678;-66
2022/04/07 06:47:01;;;;;;;1.40;0.40;;;;;;;;;;5041704;28;20380;-66
2022/04/07 06:49:27;;;;;;;0.40;0.40;;;;;;;;;;5040645;28;20612;-63
2022/04/07 06:51:53;;;;;;;0.30;0.30;;;;;;;;;;5039712;28;20021;-67
2022/04/07 06:54:19;;;;;;;0.70;0.70;;;;;;;;;;5050058;28;20053;-68
2022/04/07 06:56:45;;;;;;;1.02;0.50;;;;;;;;;;5048201;28;20387;-66
2022/04/07 06:59:11;;;;;;;0.40;0.40;;;;;;;;;;5042397;28;20040;-67
2022/04/07 07:01:37;;;;;;;1.27;0.47;;;;;;;;;;5042424;28;20120;-67
2022/04/07 07:04:03;;;;;;;1.13;1.10;;;;;;;;;;5049177;28;20052;-70
2022/04/07 07:06:29;;;;;;;0.30;0.30;;;;;;;;;;5048945;28;20025;-70
2022/04/07 07:08:55;;;;;;;0.60;0.60;;;;;;;;;;5041531;28;20595;-68
2022/04/07 07:11:21;;;;;;;0.70;0.50;;;;;;;;;;5044384;28;20024;-73
2022/04/07 07:13:47;;;;;;;1.58;0.57;;;;;;;;;;5046730;28;20036;-70
2022/04/07 07:16:13;;;;;;;0.45;0.45;;;;;;;;;;5050648;28;20020;-71
2022/04/07 07:18:41;;;;;;;0.43;0.43;;;;;;;;;;5040117;28;20433;-69
2022/04/07 07:21:07;;;;;;;0.73;0.50;;;;;;;;;;5042351;28;20036;-70
2022/04/07 07:23:33;;;;;;;0.43;0.43;;;;;;;;;;5061192;28;20041;-71
2022/04/07 07:25:59;;;;;;;0.47;0.47;;;;;;;;;;5051097;28;20025;-72
2022/04/07 07:28:24;;;;;;;0.40;0.40;;;11.60;99.90;;;;;;5042058;28;20028;-70
2022/04/07 07:30:50;;;;;;;0.63;0.63;;;;;;;;;;5041299;28;20040;-71
2022/04/07 07:33:17;;;;;;;0.45;0.45;;;;;;;;;;5046945;28;20033;-72
2022/04/07 07:35:45;;;;;;;0.50;0.50;;;;;;;;;;5049262;28;20480;-72
2022/04/07 07:38:11;;;;;;;0.45;0.45;;;;;;;;;;5045918;28;20029;-72
2022/04/07 07:40:37;;;;;;;0.40;0.40;;;;;;;;;;5042613;28;20059;-72
2022/04/07 07:43:03;;;;;;;0.60;0.60;;;;;;;;;;5047446;28;20025;-72
2022/04/07 07:45:33;;;;;;;1.38;0.50;;;;;;;;;;5047218;28;20033;-71
2022/04/07 07:47:59;;;;;;;0.40;0.40;;;;;;;;;;5060022;28;20694;-73
2022/04/07 07:50:25;;;;;;;0.60;0.60;;;;;;;;;;5042946;28;20091;-71
2022/04/07 07:52:51;;;;;;;0.40;0.40;;;;;;;;;;5042562;28;20474;-71
2022/04/07 07:55:17;;;;;;;0.30;0.30;;;;;;;;;;5046006;28;20079;-67
2022/04/07 07:57:43;;;;;;;0.35;0.35;;;;;;;;;;5047776;28;20033;-68
2022/04/07 08:00:12;;;;;;;0.57;0.57;;;12.20;88.40;;;;;;5039456;28;20452;-72
2022/04/07 08:02:39;;;;;;;0.50;0.43;;;;;;;;;;5039043;28;20020;-70
2022/04/07 08:05:06;;;;;;;0.30;0.30;;;;;;;;;;5047546;28;20033;-71
2022/04/07 08:07:32;;;;;;;0.63;0.50;;;;;;;;;;5047676;28;20038;-71
2022/04/07 08:09:58;;;;;;;2.28;0.60;;;;;;;;;;5042145;28;20304;-70
2022/04/07 08:12:28;;;;;;;0.50;0.50;;;;;;;;;;5052242;28;20031;-70
2022/04/07 08:14:54;;;;;;;1.58;0.60;;;;;;;;;;5045220;28;20044;-71
2022/04/07 08:17:20;;;;;;;0.30;0.30;;;;;;;;;;5060558;28;20468;-70
2022/04/07 08:19:47;;;;;;;0.40;0.40;;;;;;;;;;5040517;28;20082;-71
2022/04/07 08:22:13;;;;;;;0.60;0.43;;;;;;;;;;5040707;28;20082;-72
2022/04/07 08:24:39;;;;;;;0.65;0.65;;;;;;;;;;5046734;28;20029;-68
2022/04/07 08:27:06;;;;;;;2.17;0.60;;;;;;;;;;5047449;28;20031;-71
2022/04/07 08:29:32;;;;;;;0.40;0.40;;;;;;;;;;5041687;28;20037;-69
2022/04/07 08:31:58;;;;;;;1.65;1.55;;;;;;;;;;5040276;28;20025;-69
2022/04/07 08:34:25;;;;;;;0.40;0.40;;;;;;;;;;5048047;28;20094;-70
2022/04/07 08:36:51;;;;;;;0.40;0.40;;;;;;;;;;5044449;28;20659;-70
2022/04/07 08:39:17;;;;;;;0.40;0.40;;;;;;;;;;5041918;28;20122;-71
2022/04/07 08:41:45;;;;;;;0.30;0.30;;;12.30;87.10;;;;;;5038267;28;20025;-70
2022/04/07 08:44:12;;;;;;;1.67;1.58;;;;;;;;;;5047155;28;20102;-71
2022/04/07 08:46:39;;;;;;;0.35;0.35;;;;;;;;;;5046546;28;20036;-70
2022/04/07 08:49:07;;;;;;;0.88;0.50;;;;;;;;;;5040416;28;20040;-68
2022/04/07 08:51:33;;;;;;;0.63;0.60;;;;;;;;;;5040328;28;20467;-69
2022/04/07 08:54:00;;;;;;;0.95;0.55;;;;;;;;;;5048969;28;20053;-70
2022/04/07 08:56:26;;;;;;;8.73;0.95;;;;;;;;;;5046713;28;20402;-70
2022/04/07 08:58:55;;;;;;;0.40;0.40;;;;;;;;;;5040556;28;20037;-70
2022/04/07 09:01:21;;;;;;;0.40;0.40;;;;;;;;;;5039571;28;20024;-69
2022/04/07 09:03:48;;;;;;;0.30;0.30;;;;;;;;;;5043673;28;20057;-69
2022/04/07 09:06:15;;;;;;;3.42;0.70;;;;;;;;;;5045824;28;20025;-70
2022/04/07 09:08:41;;;;;;;0.85;0.60;;;;;;;;;;5040459;28;20045;-71
2022/04/07 09:11:09;;;;;;;0.55;0.52;;;;;;;;;;5045000;28;20056;-71
2022/04/07 09:13:39;;;;;;;0.32;0.32;;;12.40;86.80;;;;;;5047120;28;20041;-71
2022/04/07 09:16:07;;;;;;;0.63;0.52;;;;;;;;;;5046473;28;20051;-70
2022/04/07 09:18:35;;;;;;;0.40;0.40;;;;;;;;;;5052278;28;20021;-69
2022/04/07 09:21:00;;;;;;;;;;;;;;;;;;5054105;28;20577;-68
2022/04/07 09:23:29;;;;;;;0.30;0.30;;;;;;;;;;5048644;28;19995;-67
2022/04/07 09:25:55;;;;;;;0.63;0.50;;;;;;;;;;5046479;28;20029;-68
2022/04/07 09:28:25;;;;;;;1.20;0.50;;;;;;;;;;5039836;28;20068;-68
2022/04/07 09:30:51;;;;;;;0.40;0.40;;;;;;;;;;5053365;28;20132;-71
2022/04/07 09:33:21;;;;;;;0.30;0.30;;;;;;;;;;5043301;28;20040;-70
2022/04/07 09:36:06;;;;;;;0.40;0.40;;;;;;;;;;5048057;28;20055;-71
2022/04/07 09:38:33;;;;;;;0.60;0.60;;;;;;;;;;5041499;28;20128;-71
2022/04/07 09:41:12;;;;;;;1.20;0.43;;;12.90;85.00;;;;;;5041384;28;20062;-71
2022/04/07 09:43:42;;;;;;;0.40;0.30;;;;;;;;;;5045609;28;20025;-70
2022/04/07 09:46:11;;;;;;;0.38;0.38;;;;;;;;;;5048151;28;20031;-70
2022/04/07 09:48:37;;;;;;;0.40;0.40;;;;;;;;;;5036932;28;20044;-70
2022/04/07 09:51:07;;;;;;;0.60;0.40;;;;;;;;;;5040060;28;20448;-70
2022/04/07 09:53:36;;;;;;;1.10;0.60;;;;;;;;;;5043114;28;20901;-70
2022/04/07 09:56:02;;;;;;;0.40;0.40;;;;;;;;;;5047231;28;20056;-72
2022/04/07 09:58:28;;;;;;;0.52;0.52;;;;;;;;;;5039747;28;20596;-71
2022/04/07 10:00:56;;;;;;;0.45;0.40;;;;;;;;;;5040269;28;20186;-70
2022/04/07 10:03:23;;;;;;;0.93;0.40;;;;;;;;;;5041060;28;20086;-71
2022/04/07 10:05:50;;;;;;;0.73;0.52;;;;;;;;;;5045247;28;20468;-71
2022/04/07 10:08:16;;;;;;;0.40;0.40;;;;;;;;;;5042574;28;20017;-72
2022/04/07 10:10:43;;;;;;;0.55;0.50;;;;;;;;;;5039547;28;20037;-71
2022/04/07 10:13:10;;;;;;;1.17;1.08;;;;;;;;;;5040453;28;20036;-69
2022/04/07 10:15:36;;;;;;;0.50;0.50;;;13.50;83.20;;;;;;5046167;28;20508;-70
2022/04/07 10:18:07;;;;;;;1.17;0.67;;;;;;;;;;5040825;28;20033;-70
2022/04/07 10:20:34;;;;;;;0.60;0.60;;;;;;;;;;5037637;28;20435;-72
2022/04/07 10:23:19;;;;;;;0.52;0.52;;;;;;;;;;5041289;28;20135;-70
2022/04/07 10:25:49;;;;;;;0.50;0.40;;;;;;;;;;5055139;28;20123;-67
2022/04/07 10:28:16;;;;;;;1.85;0.47;;;;;;;;;;5039216;28;20083;-68
2022/04/07 10:30:49;;;;;;;0.40;0.40;;;;;;;;;;5035926;28;20820;-68
2022/04/07 10:33:47;;;;;;;0.50;0.50;;;;;;;;;;5039276;28;20359;-67
2022/04/07 10:36:17;;;;;;;0.30;0.30;;;;;;;;;;5010856;28;20088;-67
2022/04/07 10:38:44;;;;;;;0.50;0.47;;;;;;;;;;4994233;28;20048;-67
2022/04/07 10:41:10;;;;;;;0.43;0.43;;;13.80;90.60;;;;;;4999903;28;20189;-67
2022/04/07 10:43:40;;;;;;;0.40;0.40;;;;;;;;;;5006268;28;20088;-66
2022/04/07 10:46:19;;;;;;;0.40;0.40;;;14.00;81.70;;;;;;5010418;28;20085;-67
2022/04/07 10:49:11;;;;;;;0.40;0.40;;;;;;;;;;4993734;28;20084;-68
2022/04/07 10:51:45;;;;;;;0.43;0.40;;;;;;;;;;5000450;28;20876;-67
2022/04/07 10:54:12;;;;;;;0.35;0.32;;;;;;;;;;5006283;28;20760;-67
2022/04/07 10:56:41;;;;;;;0.30;0.30;;;;;;;;;;5009394;28;20783;-67
2022/04/07 10:59:10;;;;;;;0.40;0.40;;;;;;;;;;4974892;28;20053;-68
2022/04/07 11:01:41;;;;;;;0.30;0.30;;;;;;;;;;4999871;28;20483;-67
2022/04/07 11:04:22;;;;;;;3.75;0.40;;;;;;;;;;5004272;28;23115;-67
2022/04/07 11:07:13;;;;;;;0.40;0.40;;;14.50;77.60;;;;;;5008625;28;20036;-67
2022/04/07 11:09:54;;;;;;;0.82;0.40;;;;;;;;;;4993216;28;20057;-67
2022/04/07 11:12:23;;;;;;;0.30;0.30;;;;;;;;;;5026819;28;20068;-66
2022/04/07 11:14:50;;;;;;;0.52;0.50;;;;;;;;;;5042553;28;20030;-67
2022/04/07 11:17:46;;;;;;;0.63;0.60;;;;;;;;;;5047687;28;20130;-67
2022/04/07 11:20:16;;;;;;;0.60;0.60;;;;;;;;;;5024126;28;20429;-67
2022/04/07 11:23:09;;;;;;;0.40;0.40;;;;;;;;;;5037353;28;20044;-67
2022/04/07 11:25:44;;;;;;;0.82;0.73;;;;;;;;;;5043643;28;20100;-68
2022/04/07 11:28:24;;;;;;;1.17;0.75;;;;;;;;;;5041687;28;20585;-68
2022/04/07 11:30:51;;;;;;;2.63;0.77;;;;;;;;;;5034275;28;20553;-68
2022/04/07 11:33:29;;;;;;;2.85;0.73;;;;;;;;;;5042496;28;20616;-66
2022/04/07 11:36:00;;;;;;;0.30;0.30;;;15.60;72.70;;;;;;5044482;28;20040;-68
2022/04/07 11:38:26;;;;;;;0.77;0.50;;;;;;;;;;5042048;28;20037;-67
2022/04/07 11:41:03;;;;;;;5.22;1.98;;;;;;;;;;5039377;28;20082;-70
2022/04/07 11:43:29;;;;;;;0.70;0.70;;;;;;;;;;5048072;28;20507;-71
2022/04/07 11:45:56;;;;;;;1.20;0.83;;;15.70;72.10;;;;;;5059408;28;20059;-69
2022/04/07 11:48:23;;;;;;;2.45;1.85;;;;;;;;;;5041703;28;20037;-71
2022/04/07 11:50:49;;;;;;;1.17;0.70;;;;;;;;;;5035733;28;20020;-70
2022/04/07 11:53:16;;;;;;;3.97;1.77;;;;;;;;;;5046480;28;20029;-70
2022/04/07 11:55:42;;;;;;;1.08;0.70;;;;;;;;;;5047275;28;20039;-69
2022/04/07 11:58:10;;;;;;;1.20;0.52;;;;;;;;;;5045064;28;20037;-66
2022/04/07 12:00:36;;;;;;;0.45;0.45;;;;;;;;;;5038103;28;20036;-67
2022/04/07 12:03:03;;;;;;;1.30;0.93;;;;;;;;;;5040297;28;20555;-71
2022/04/07 12:05:30;;;;;;;2.92;1.55;;;;;;;;;;5047022;28;20144;-70
2022/04/07 12:07:56;;;;;;;0.70;0.70;;;;;;;;;;5044784;28;20118;-70
2022/04/07 12:10:24;;;;;;;1.05;0.50;;;;;;;;;;5039763;28;20513;-72
2022/04/07 12:12:50;;;;;;;0.30;0.30;;;;;;;;;;5039490;28;20027;-69
2022/04/07 12:15:17;;;;;;;0.95;0.60;;;;;;;;;;5047882;28;20033;-72
2022/04/07 12:18:02;;;;;;;0.40;0.40;;;;;;;;;;5044474;28;20017;-71
2022/04/07 12:20:29;;;;;;;0.47;0.35;;;;;;;;;;5039921;28;20208;-69
2022/04/07 12:23:08;;;;;;;0.40;0.40;;;;;;;;;;5037280;28;20165;-65
2022/04/07 12:25:35;;;;;;;0.38;0.30;;;;;;;;;;5047671;28;20033;-68
2022/04/07 12:28:08;;;;;;;0.30;0.30;;;;;;;;;;5044703;28;20112;-69
2022/04/07 12:30:44;;;;;;;1.58;0.30;;;;;;;;;;5040075;28;20478;-70
2022/04/07 12:33:10;;;;;;;0.73;0.38;;;;;;;;;;5043777;28;20021;-71
2022/04/07 12:35:49;;;;;;;0.38;0.38;;;;;;;;;;5047349;28;20068;-73
2022/04/07 12:38:15;;;;;;;0.45;0.45;;;;;;;;;;5042044;28;20079;-73
2022/04/07 12:40:42;;;;;;;6.80;0.43;;;;;;;;;;5040455;28;20446;-69
2022/04/07 12:43:08;;;;;;;0.60;0.50;;;;;;;;;;5053771;28;20383;-73
2022/04/07 12:45:34;;;;;;;0.35;0.30;;;;;;;;;;5044730;28;20036;-74
2022/04/07 12:48:01;;;;;;;0.50;0.40;;;;;;;;;;5043144;28;20075;-68
2022/04/07 12:50:27;;;;;;;0.40;0.30;;;;;;;;;;5038054;28;20045;-67
2022/04/07 12:52:53;;;;;;;0.30;0.30;;;;;;;;;;5038886;28;20636;-70
2022/04/07 12:55:19;;;;;;;0.20;0.20;;;;;;;;;;5046770;28;20548;-68
2022/04/07 12:57:45;;;;;;;0.43;0.43;;;15.70;72.70;;;;;;5046682;28;20029;-72
2022/04/07 13:00:13;;;;;;;0.40;0.40;;;;;;;;;;5032524;28;20039;-72
2022/04/07 13:02:52;;;;;;;0.47;0.43;;;;;;;;;;5035637;28;20025;-69
2022/04/07 13:05:21;;;;;;;0.98;0.60;;;;;;;;;;5048990;28;20036;-66
2022/04/07 13:07:47;;;;;;;0.63;0.40;;;;;;;;;;5045506;28;20040;-67
2022/04/07 13:10:13;;;;;;;1.50;0.50;;;;;;;;;;5035440;28;20041;-68
2022/04/07 13:12:39;;;;;;;0.63;0.30;;;;;;;;;;5037330;28;20032;-69
2022/04/07 13:15:06;;;;;;;0.40;0.40;;;15.60;72.40;;;;;;5045619;28;20082;-67
2022/04/07 13:17:32;;;;;;;0.40;0.40;;;;;;;;;;5046947;28;20120;-66
2022/04/07 13:19:58;;;;;;;0.40;0.40;;;;;;;;;;5047277;28;20287;-65
2022/04/07 13:22:26;;;;;;;0.32;0.32;;;;;;;;;;5037542;28;21033;-68
2022/04/07 13:24:52;;;;;;;1.10;0.40;;;;;;;;;;5044725;28;20033;-69
2022/04/07 13:27:18;;;;;;;0.40;0.40;;;;;;;;;;5047074;28;20037;-69
2022/04/07 13:29:45;;;;;;;1.42;0.75;;;;;;;;;;5033358;28;20529;-71
2022/04/07 13:32:11;;;;;;;0.20;0.20;;;;;;;;;;5038358;28;20027;-69
2022/04/07 13:34:37;;;;;;;2.70;0.60;;;;;;;;;;5043893;28;20579;-71
2022/04/07 13:37:06;;;;;;;0.50;0.50;;;;;;;;;;5047659;28;20024;-69
2022/04/07 13:39:32;;;;;;;0.50;0.40;;;;;;;;;;5043259;28;20033;-69
2022/04/07 13:41:58;;;;;;;0.30;0.30;;;15.40;92.60;;;;;;5041352;28;20580;-69
2022/04/07 13:44:24;;;;;;;0.93;0.85;;;15.30;85.50;;;;;;5046801;28;20037;-68
2022/04/07 13:46:50;;;;;;;0.50;0.30;;;;;;;;;;5046220;28;20025;-69
2022/04/07 13:49:16;;;;;;;0.50;0.50;;;;;;;;;;5038718;28;20041;-69
2022/04/07 13:51:43;;;;;;;0.50;0.43;;;;;;;;;;5035493;28;20048;-69
2022/04/07 13:54:09;;;;;;;0.95;0.50;;;;;;;;;;5043175;28;20132;-70
2022/04/07 13:56:36;;;;;;;0.60;0.60;;;;;;;;;;5048510;28;20414;-69
2022/04/07 13:59:02;;;;;;;0.45;0.45;;;;;;;;;;5038484;28;20444;-69
2022/04/07 14:01:28;;;;;;;0.20;0.20;;;;;;;;;;5037191;28;20456;-69
2022/04/07 14:03:54;;;;;;;0.43;0.43;;;;;;;;;;5042520;28;20391;-68
2022/04/07 14:06:21;;;;;;;0.38;0.35;;;;;;;;;;5044856;28;20033;-69
2022/04/07 14:08:48;;;;;;;0.47;0.30;;;;;;;;;;5040129;28;20041;-70
2022/04/07 14:11:15;;;;;;;0.75;0.60;;;;;;;;;;5049182;28;20021;-69
2022/04/07 14:13:41;;;;;;;0.50;0.50;;;;;;;;;;5044425;28;20032;-68
2022/04/07 14:16:10;;;;;;;4.30;0.50;;;;;;;;;;5043309;28;20045;-68
2022/04/07 14:18:37;;;;;;;0.77;0.50;;;;;;;;;;5039135;28;20542;-68
2022/04/07 14:21:03;;;;;;;0.73;0.73;;;;;;;;;;5040074;28;20482;-69
2022/04/07 14:23:29;;;;;;;0.30;0.30;;;;;;;;;;5039460;28;20494;-68
2022/04/07 14:25:56;;;;;;;8.27;0.52;;;;;;;;;;5042788;28;20040;-68
2022/04/07 14:28:22;;;;;;;0.40;0.40;;;;;;;;;;5041266;28;20040;-68
2022/04/07 14:30:51;;;;;;;0.60;0.50;;;;;;;;;;5045843;28;20037;-69
2022/04/07 14:33:18;;;;;;;0.30;0.30;;;;;;;;;;5032797;28;20024;-70